New England, North Dakota
Current Conditions -  °F | °C
As of 4:56 AM on Thursday 23 Oct 2014 (Local Time) from KDIK Reporting Station
Clear Clear  
Wind Chill: 38°   Ceiling: Unl
Heat Index: 38°   Visibility: 10mi
Dew Point: 27°   Wind: 3mph
Humidity: 65%   Direction: 240°WSW
Pressure: 29.88"   Gusts: NA
Location:  46.54°N, 102.87°W
Report Text: KDIK 231056Z AUTO 24003KT 10SM CLR 03/M03 A2988 RMK AO2 SLP123 T00331028
Loading
Personal Weather Stations






























Interactive Weather Map
Tropical Storm Tracking
New forecast layout! Learn more

10-Day Weather Forecast

Advertisements
Track Severe Weather on mobile